Hovedside
METAR-TAF:

METAR-TAF

Lufthavner :

Nadi, Fiji

breddegrad: 17-45S, lengdegrad: 177-27E, høyde over havet: 13 m

Gjeldene værobservasjon

Denne rapporten ble laget for 56 minutter siden, klokken 10:00 UTC
Vind 4 kt fra Sørøst
Temperatur 24°C
Luftfuktighet 78%
Trykk 1012 hPa
Sikt 10 km eller mer
Få skyer i en høyde av 2800 ft
Spredte skyer i en høyde av 5000 ft

METAR: NFFN 211000Z 14004KT 9999 FEW028 SCT050 24/20 Q1012 NOSIG

Tid: 22:56 (10:56 UTC)

Varsel

Denne rapporten ble laget for 5 timer og 42 minutter siden, klokken 05:14 UTC
Varsel gyldig fra 21. klokken 06 UTC til 22. klokken 06 UTC
Vind 8 kt fra Sørøst
Sikt 10 km eller mer
Spredte skyer i en høyde av 2500 ft
Blir
fra 21. klokken 22 UTC til 21. klokken 24 UTC
Vind 10 kt fra Vest
Blir
fra 22. klokken 04 UTC til 22. klokken 06 UTC
Vind 6 kt fra Øst-sørøst

TAF: NFFN 210514Z 2106/2206 14008KT 9999 SCT025 BECMG 2122/2124 28010KT BECMG 2204/2206 12006KT

Værobservasjoner og værvarsel for over 4000 flyplasser (METAR- og TAF-rapporter).

Tilgjengelige stasjoner er representert av de røde og gule prikkene på kartet.

Hold musepekeren over prikken for å se navnet på stasjonen.

Klikk så for å se værobservasjoner og -varsler.

For å forandre kartet kan du klikke på den grønne knappen med svart kryss for å zoome inn, på den grønne knappen med strek for å zoome ut, eller på de grønne pilene for å se tilstøtende kart.


METAR-TAF: